Lewistown, MT (59457)

2:19 AM MST on February 06, 2016 (GMT -0700)
3/4 mile S of Lewistown | | Change Station
CLOSE
Current Station
Personal Weather Station
Location: Lewistown, Mt
Elevation: 4189 ft
Nearby Weather Stations
Active Advisory: High Wind Warning

Elev 4189 ft 47.04 °N, 109.42 °W | Updated 2 seconds ago

Clear
Clear
39.6 °F
Feels Like 31 °F
N
16.0
Wind Variable Wind from South
Gusts 32.0 mph

Today
High -- | Low -- °F
--% Chance of Precip.
Yesterday
High -- | Low -- °F
Precip. -- in
Pressure 30.01 in
Visibility 10.0 miles
Clouds Clear
Windchill 31 °F
Dew Point 25 °F
Humidity 55%
Rainfall 0.00 in
Snow Depth Not available.
7:36 AM 5:27 PM
Waning Crescent, 6% visible
METAR KLWT 060854Z AUTO 26019KT 10SM CLR 04/M04 A2997 RMK AO2 PK WND 25033/0842 SLP161 T00441044 57012
Pressure 30.01 in
Visibility 10.0 miles
Clouds Clear
Windchill 31 °F
Dew Point 25 °F
Humidity 55%
Rainfall 0.00 in
Snow Depth Not available.
7:36 AM 5:27 PM
Waning Crescent, 6% visible
METAR KLWT 060854Z AUTO 26019KT 10SM CLR 04/M04 A2997 RMK AO2 PK WND 25033/0842 SLP161 T00441044 57012

10-Day Weather Forecast

Almanac

Astronomy

Feb. 06, 2016 Rise Set
Actual Time
Civil Twilight
Nautical Twilight
Astronomical Twilight
Moon
Length of Visible Light
Length of Day
Tomorrow will be .
, % of the Moon is Illuminated

Today's Extremes

State Highs State Lows

Community

WunderPhotos

Upload Photos

1,890,933 photos uploaded!

WunderBlog® & News

Nearby

Air Quality

  Air Quality AQ Index Pollutant
Not available.

Snow Depth

Station Depth Elevation

Earthquake Activity

City Distance Mag. Time & Date
Minimum magnitude displayed is 2.5.

Coastal Water Temperatures

Place Temperature

Stations

Nearby Weather Stations

Station Location Temp. Windchill Dew Point Humidity Wind Precip. Elev Updated Type
                   

Watches & Warnings

High Wind Warning
Issued: 9:05 PM MST Feb. 5, 2016 – National Weather Service

... High Wind Warning remains in effect until 5 PM MST Saturday...

* timing... southwest to west winds will increase late this
evening and remain strong through Saturday afternoon.
Strongest winds are likely to occur Saturday morning.

* Winds... southwest to west winds 35 to 45 mph with gusts to 70
mph.

* Impacts... strong winds may cause difficult driving conditions
for high profile vehicles.

Precautionary/preparedness actions...

A High Wind Warning means a hazardous high wind event is expected
or occurring. Strong winds endanger transportation and could
cause property damage.